Time;durP1;ratioP1;P1;durP2;ratioP2;P2;SDS_P1;SDS_P2;PMS_P1;PMS_P2;Temp;Humidity;BMP_temperature;BMP_pressure;BME280_temperature;BME280_humidity;BME280_pressure;Samples;Min_cycle;Max_cycle;Signal;HPM_P1;HPM_P2
2023/02/28 00:00:12;;;;;;;5.73;5.23;;;3.70;78.50;;;;;;5073339;28;20455;-58
2023/02/28 00:02:40;;;;;;;8.30;5.43;;;3.60;78.40;;;;;;5073051;28;20534;-58
2023/02/28 00:05:08;;;;;;;6.90;5.00;;;3.70;78.40;;;;;;5073070;28;20453;-58
2023/02/28 00:07:35;;;;;;;9.33;5.07;;;3.60;78.30;;;;;;5072896;28;20489;-58
2023/02/28 00:10:02;;;;;;;7.27;5.10;;;3.60;78.50;;;;;;5072840;28;20471;-58
2023/02/28 00:12:29;;;;;;;8.20;5.87;;;3.60;78.60;;;;;;5072894;28;20445;-58
2023/02/28 00:14:57;;;;;;;9.00;5.30;;;3.60;78.60;;;;;;5072568;28;20445;-58
2023/02/28 00:17:25;;;;;;;5.73;4.73;;;3.60;78.90;;;;;;5072879;28;20445;-58
2023/02/28 00:19:52;;;;;;;6.33;5.20;;;3.50;78.90;;;;;;5072896;28;20504;-58
2023/02/28 00:22:22;;;;;;;6.63;5.67;;;3.50;79.10;;;;;;5072613;28;20954;-57
2023/02/28 00:24:49;;;;;;;5.97;5.30;;;3.50;79.40;;;;;;5073322;28;20448;-57
2023/02/28 00:27:15;;;;;;;6.40;5.43;;;3.50;79.70;;;;;;5072958;28;20566;-57
2023/02/28 00:29:42;;;;;;;6.80;6.10;;;3.50;79.80;;;;;;5072847;28;20464;-57
2023/02/28 00:32:10;;;;;;;6.20;5.47;;;3.40;79.60;;;;;;5072785;28;20445;-57
2023/02/28 00:34:37;;;;;;;7.37;5.70;;;3.40;79.90;;;;;;5072761;28;20444;-57
2023/02/28 00:37:05;;;;;;;5.00;4.50;;;3.40;79.80;;;;;;5072806;28;20472;-57
2023/02/28 00:39:34;;;;;;;10.63;5.50;;;3.40;80.00;;;;;;5072383;28;20469;-57
2023/02/28 00:42:00;;;;;;;6.83;5.23;;;3.40;80.20;;;;;;5072688;28;20452;-57
2023/02/28 00:44:27;;;;;;;5.63;4.53;;;3.40;80.10;;;;;;5072676;28;20444;-57
2023/02/28 00:46:55;;;;;;;6.90;5.30;;;3.40;80.20;;;;;;5072634;28;20484;-57
2023/02/28 00:49:24;;;;;;;5.90;4.93;;;3.40;80.40;;;;;;5075747;28;20564;-57
2023/02/28 00:51:51;;;;;;;4.80;4.30;;;3.40;80.60;;;;;;5076176;28;20448;-57
2023/02/28 00:54:17;;;;;;;6.57;4.77;;;3.40;80.80;;;;;;5076140;28;20448;-57
2023/02/28 00:56:45;;;;;;;7.13;5.00;;;3.40;80.90;;;;;;5076158;28;20452;-57
2023/02/28 00:59:12;;;;;;;7.90;4.83;;;3.40;81.20;;;;;;5076065;28;20472;-57
2023/02/28 01:01:39;;;;;;;6.00;4.43;;;3.40;81.30;;;;;;5076028;28;20452;-57
2023/02/28 01:04:06;;;;;;;5.73;4.07;;;3.40;81.30;;;;;;5076006;28;20824;-57
2023/02/28 01:06:34;;;;;;;5.63;4.40;;;3.30;81.30;;;;;;5075628;28;20954;-57
2023/02/28 01:09:01;;;;;;;5.73;4.10;;;3.30;81.50;;;;;;5075832;28;20492;-58
2023/02/28 01:11:28;;;;;;;6.97;5.07;;;3.30;81.60;;;;;;5076378;28;20440;-58
2023/02/28 01:13:54;;;;;;;6.10;4.43;;;3.30;81.70;;;;;;5075776;28;20444;-58
2023/02/28 01:16:21;;;;;;;7.23;4.23;;;3.30;81.70;;;;;;5075739;28;20449;-58
2023/02/28 01:18:48;;;;;;;5.20;4.00;;;3.30;81.70;;;;;;5075502;28;20449;-58
2023/02/28 01:21:17;;;;;;;6.60;3.80;;;3.30;81.70;;;;;;5075596;28;20444;-58
2023/02/28 01:23:45;;;;;;;7.20;4.83;;;3.30;81.50;;;;;;5075706;28;20437;-58
2023/02/28 01:26:14;;;;;;;8.80;4.60;;;3.30;81.30;;;;;;5075582;28;20448;-58
2023/02/28 01:28:42;;;;;;;4.53;4.13;;;3.20;81.30;;;;;;5075393;28;20493;-58
2023/02/28 01:31:09;;;;;;;4.80;4.33;;;3.20;81.60;;;;;;5075574;28;20448;-58
2023/02/28 01:33:37;;;;;;;4.30;3.90;;;3.20;82.00;;;;;;5075406;28;20452;-58
2023/02/28 01:36:05;;;;;;;6.67;4.57;;;3.20;82.10;;;;;;5075376;28;20449;-58
2023/02/28 01:38:33;;;;;;;5.10;4.27;;;3.20;82.20;;;;;;5075976;28;20436;-58
2023/02/28 01:41:01;;;;;;;4.50;4.10;;;3.20;82.30;;;;;;5074860;28;21000;-58
2023/02/28 01:43:30;;;;;;;6.13;3.33;;;3.20;82.20;;;;;;5074960;28;20934;-58
2023/02/28 01:45:58;;;;;;;6.40;4.60;;;3.10;82.00;;;;;;5075164;28;20445;-58
2023/02/28 01:48:29;;;;;;;4.20;3.80;;;3.10;81.80;;;;;;5075077;28;20483;-58
2023/02/28 01:51:01;;;;;;;4.87;3.73;;;3.10;82.10;;;;;;5075057;28;20477;-58
2023/02/28 01:53:33;;;;;;;8.30;3.73;;;3.10;82.40;;;;;;5074768;28;20853;-58
2023/02/28 01:56:04;;;;;;;4.00;3.00;;;3.10;82.50;;;;;;5075069;28;20835;-58
2023/02/28 01:58:31;;;;;;;6.50;3.67;;;3.10;82.60;;;;;;5074958;28;20425;-58
2023/02/28 02:00:58;;;;;;;6.50;3.93;;;3.10;82.40;;;;;;5074129;28;20477;-58
2023/02/28 02:03:25;;;;;;;6.77;4.40;;;3.00;82.00;;;;;;5074886;28;20455;-58
2023/02/28 02:05:52;;;;;;;7.40;4.03;;;3.00;82.10;;;;;;5074516;28;20938;-58
2023/02/28 02:08:22;;;;;;;4.03;3.50;;;3.00;82.10;;;;;;5074711;28;20917;-58
2023/02/28 02:10:53;;;;;;;4.63;3.70;;;3.00;82.20;;;;;;5074656;28;20469;-58
2023/02/28 02:13:31;;;;;;;3.43;3.13;;;2.90;82.20;;;;;;5074391;28;20493;-58
2023/02/28 02:16:05;;;;;;;6.33;4.27;;;2.90;82.40;;;;;;5074337;28;20921;-58
2023/02/28 02:18:41;;;;;;;4.70;3.43;;;2.90;82.70;;;;;;5074588;28;20790;-58
2023/02/28 02:21:50;;;;;;;4.20;3.10;;;2.90;83.20;;;;;;5074388;28;20798;-58
2023/02/28 02:24:49;;;;;;;4.50;3.33;;;2.90;83.20;;;;;;5066775;28;20459;-58
2023/02/28 02:27:33;;;;;;;3.80;3.40;;;2.90;83.50;;;;;;5074580;28;20468;-58
2023/02/28 02:30:23;;;;;;;5.30;3.53;;;2.80;83.50;;;;;;5074360;28;20468;-58
2023/02/28 02:33:13;;;;;;;6.33;4.30;;;2.80;83.60;;;;;;5074280;28;20531;-58
2023/02/28 02:35:48;;;;;;;5.60;3.70;;;2.80;83.70;;;;;;5074219;28;20455;-58
2023/02/28 02:38:23;;;;;;;4.53;4.13;;;2.80;84.00;;;;;;5074163;28;20429;-58
2023/02/28 02:40:58;;;;;;;5.17;4.67;;;2.80;84.20;;;;;;5074112;28;20475;-58
2023/02/28 02:43:31;;;;;;;6.03;4.70;;;2.70;84.10;;;;;;5073774;28;20965;-58
2023/02/28 02:46:05;;;;;;;6.77;5.33;;;2.70;84.50;;;;;;5074026;28;20437;-58
2023/02/28 02:48:34;;;;;;;8.60;5.70;;;2.70;84.80;;;;;;5073956;28;20465;-58
2023/02/28 02:51:11;;;;;;;12.63;6.50;;;2.70;85.20;;;;;;5073843;28;20469;-57
2023/02/28 02:53:42;;;;;;;7.77;5.90;;;2.70;85.70;;;;;;5073944;28;20824;-58
2023/02/28 02:56:10;;;;;;;7.80;5.70;;;2.60;85.90;;;;;;5073528;28;20929;-58
2023/02/28 02:58:41;;;;;;;8.23;6.43;;;2.70;86.40;;;;;;5073868;28;20448;-57
2023/02/28 03:01:11;;;;;;;10.43;6.80;;;2.60;86.40;;;;;;5073511;28;20436;-57
2023/02/28 03:03:38;;;;;;;7.23;5.67;;;2.60;86.60;;;;;;5073764;28;20451;-57
2023/02/28 03:06:06;;;;;;;11.53;6.50;;;2.60;86.80;;;;;;5073743;28;20448;-57
2023/02/28 03:08:41;;;;;;;9.00;6.77;;;2.60;87.00;;;;;;5073322;28;21001;-58
2023/02/28 03:11:14;;;;;;;7.00;6.30;;;2.50;87.20;;;;;;5073887;28;20432;-58
2023/02/28 03:13:55;;;;;;;7.87;6.10;;;2.60;87.70;;;;;;5073797;28;20807;-58
2023/02/28 03:16:34;;;;;;;8.67;6.60;;;2.50;87.60;;;;;;5073628;28;20951;-58
2023/02/28 03:19:17;;;;;;;8.40;6.07;;;2.50;87.70;;;;;;5074019;28;20511;-58
2023/02/28 03:21:54;;;;;;;8.33;6.40;;;2.50;87.80;;;;;;5074561;28;20468;-58
2023/02/28 03:24:28;;;;;;;10.17;6.20;;;2.50;88.10;;;;;;5074066;28;20436;-58
2023/02/28 03:27:00;;;;;;;10.37;6.73;;;2.40;88.30;;;;;;5073667;28;20437;-58
2023/02/28 03:29:35;;;;;;;9.83;6.30;;;2.40;88.20;;;;;;5073271;28;20994;-58
2023/02/28 03:32:06;;;;;;;9.13;6.30;;;2.40;88.20;;;;;;5073431;28;20436;-58
2023/02/28 03:34:38;;;;;;;9.50;6.03;;;2.30;88.20;;;;;;5073505;28;20444;-58
2023/02/28 03:37:09;;;;;;;8.80;6.20;;;2.30;88.20;;;;;;5073306;28;20918;-58
2023/02/28 03:39:40;;;;;;;10.80;6.53;;;2.30;88.40;;;;;;5073117;28;20472;-58
2023/02/28 03:42:11;;;;;;;11.87;6.47;;;2.30;88.40;;;;;;5073488;28;20440;-58
2023/02/28 03:44:42;;;;;;;6.50;5.83;;;2.30;88.40;;;;;;5073409;28;20452;-58
2023/02/28 03:47:13;;;;;;;10.50;7.13;;;2.20;88.40;;;;;;5073334;28;20776;-58
2023/02/28 03:49:44;;;;;;;8.87;6.50;;;2.20;88.70;;;;;;5073303;28;20471;-58
2023/02/28 03:52:12;;;;;;;7.10;6.40;;;2.20;88.80;;;;;;5073826;28;20464;-58
2023/02/28 03:54:45;;;;;;;9.80;6.67;;;2.20;88.90;;;;;;5073965;28;20454;-58
2023/02/28 03:57:18;;;;;;;7.10;5.30;;;2.20;89.10;;;;;;5073208;28;20444;-57
2023/02/28 03:59:48;;;;;;;7.30;6.67;;;2.20;89.30;;;;;;5073929;28;20471;-57
2023/02/28 04:02:15;;;;;;;6.50;5.90;;;2.20;89.60;;;;;;5073158;28;20444;-58
2023/02/28 04:04:48;;;;;;;9.13;6.07;;;2.10;89.80;;;;;;5073197;28;20444;-58
2023/02/28 04:07:16;;;;;;;8.80;6.30;;;2.10;90.00;;;;;;5072753;28;20483;-58
2023/02/28 04:09:44;;;;;;;7.70;6.03;;;2.10;90.20;;;;;;5072900;28;20460;-58
2023/02/28 04:12:10;;;;;;;6.87;5.73;;;2.10;90.30;;;;;;5072983;28;20818;-57
2023/02/28 04:14:37;;;;;;;8.13;6.00;;;2.00;90.50;;;;;;5072675;28;20934;-58
2023/02/28 04:17:04;;;;;;;10.30;5.53;;;2.10;90.90;;;;;;5073310;28;20441;-56
2023/02/28 04:19:30;;;;;;;7.13;5.63;;;2.10;91.10;;;;;;5072846;28;20465;-57
2023/02/28 04:21:57;;;;;;;8.77;6.17;;;2.10;91.10;;;;;;5072449;28;20511;-57
2023/02/28 04:24:27;;;;;;;6.70;6.10;;;2.10;91.10;;;;;;5076869;28;20832;-58
2023/02/28 04:26:55;;;;;;;5.90;5.27;;;2.10;91.20;;;;;;5076800;28;20441;-56
2023/02/28 04:29:24;;;;;;;6.63;5.00;;;2.00;91.10;;;;;;5077143;28;20496;-57
2023/02/28 04:31:52;;;;;;;6.30;5.70;;;2.10;91.20;;;;;;5076854;28;20455;-57
2023/02/28 04:34:19;;;;;;;13.07;5.67;;;2.00;91.10;;;;;;5076209;28;20887;-56
2023/02/28 04:36:48;;;;;;;8.03;6.77;;;2.00;91.10;;;;;;5076211;28;20501;-56
2023/02/28 04:39:15;;;;;;;7.80;5.30;;;2.00;91.10;;;;;;5076365;28;20575;-57
2023/02/28 04:41:43;;;;;;;6.63;5.40;;;2.10;91.20;;;;;;5076386;28;20506;-56
2023/02/28 04:44:10;;;;;;;7.60;6.27;;;2.00;91.20;;;;;;5076398;28;20452;-56
2023/02/28 04:46:37;;;;;;;6.37;5.73;;;2.00;91.20;;;;;;5076303;28;20448;-56
2023/02/28 04:49:04;;;;;;;7.67;6.10;;;2.00;91.30;;;;;;5076091;28;20492;-56
2023/02/28 04:51:30;;;;;;;9.20;6.00;;;2.00;91.30;;;;;;5076270;28;20855;-56
2023/02/28 04:53:57;;;;;;;6.90;6.30;;;2.00;91.20;;;;;;5076228;28;20449;-56
2023/02/28 04:56:25;;;;;;;9.33;6.63;;;2.00;91.20;;;;;;5076161;28;20452;-56
2023/02/28 04:58:53;;;;;;;7.33;6.03;;;2.00;91.20;;;;;;5075823;28;20451;-57
2023/02/28 05:01:23;;;;;;;6.90;5.77;;;2.00;91.60;;;;;;5076106;28;20440;-57
2023/02/28 05:03:50;;;;;;;6.87;5.50;;;2.00;91.20;;;;;;5076804;28;20445;-57
2023/02/28 05:06:17;;;;;;;5.57;5.03;;;2.00;91.20;;;;;;5076022;28;20862;-57
2023/02/28 05:08:44;;;;;;;8.87;5.50;;;2.00;91.10;;;;;;5075792;28;20476;-57
2023/02/28 05:11:16;;;;;;;7.00;5.00;;;2.00;91.00;;;;;;5075918;28;20449;-57
2023/02/28 05:13:43;;;;;;;10.50;5.43;;;2.00;91.00;;;;;;5075873;28;20448;-57
2023/02/28 05:16:11;;;;;;;6.77;6.07;;;2.00;90.90;;;;;;5075824;28;20456;-57
2023/02/28 05:18:37;;;;;;;5.93;4.93;;;1.90;90.80;;;;;;5075789;28;20444;-57
2023/02/28 05:21:04;;;;;;;5.83;5.27;;;2.00;90.70;;;;;;5075625;28;20452;-57
2023/02/28 05:23:31;;;;;;;7.17;5.70;;;1.90;90.60;;;;;;5075893;28;20437;-57
2023/02/28 05:25:58;;;;;;;10.27;6.37;;;1.90;90.50;;;;;;5075637;28;20448;-57
2023/02/28 05:28:25;;;;;;;9.13;5.83;;;1.90;90.50;;;;;;5075530;28;20504;-57
2023/02/28 05:30:51;;;;;;;7.60;4.63;;;1.90;90.50;;;;;;5075520;28;20831;-57
2023/02/28 05:33:20;;;;;;;7.47;5.17;;;1.90;90.50;;;;;;5076160;28;20455;-57
2023/02/28 05:35:46;;;;;;;5.83;5.33;;;1.80;90.40;;;;;;5074342;28;20463;-57
2023/02/28 05:38:13;;;;;;;5.80;5.17;;;1.80;90.40;;;;;;5075383;28;20453;-57
2023/02/28 05:40:40;;;;;;;5.77;4.60;;;1.80;90.30;;;;;;5075269;28;20465;-57
2023/02/28 05:43:09;;;;;;;8.50;5.07;;;1.80;90.20;;;;;;5075283;28;20502;-57
2023/02/28 05:45:36;;;;;;;9.07;5.43;;;1.70;90.10;;;;;;5074878;28;20958;-57
2023/02/28 05:48:03;;;;;;;12.00;5.87;;;1.70;90.10;;;;;;5075087;28;20449;-57
2023/02/28 05:50:31;;;;;;;6.53;4.80;;;1.70;90.10;;;;;;5075085;28;20464;-57
2023/02/28 05:52:58;;;;;;;5.73;5.13;;;1.60;90.10;;;;;;5075158;28;20445;-57
2023/02/28 05:55:24;;;;;;;7.00;5.13;;;1.60;90.20;;;;;;5075139;28;20441;-57
2023/02/28 05:57:51;;;;;;;6.00;4.63;;;1.60;90.30;;;;;;5074703;28;20449;-57
2023/02/28 06:00:19;;;;;;;5.60;4.83;;;1.60;90.40;;;;;;5074592;28;20978;-57
2023/02/28 06:02:45;;;;;;;7.47;5.30;;;1.60;90.40;;;;;;5074906;28;20448;-57
2023/02/28 06:05:15;;;;;;;5.17;4.67;;;1.60;90.40;;;;;;5074847;28;20451;-57
2023/02/28 06:07:44;;;;;;;5.77;4.80;;;1.60;90.50;;;;;;5074892;28;20895;-57
2023/02/28 06:10:11;;;;;;;6.07;5.23;;;1.60;90.50;;;;;;5074726;28;20500;-57
2023/02/28 06:12:38;;;;;;;7.50;5.30;;;1.50;90.50;;;;;;5074912;28;20453;-57
2023/02/28 06:15:06;;;;;;;9.20;5.53;;;1.50;90.50;;;;;;5075132;28;20452;-57
2023/02/28 06:17:32;;;;;;;7.93;5.33;;;1.50;90.60;;;;;;5074987;28;20452;-56
2023/02/28 06:19:59;;;;;;;6.60;5.40;;;1.50;90.60;;;;;;5074715;28;20461;-57
2023/02/28 06:22:26;;;;;;;10.47;5.70;;;1.50;90.70;;;;;;5074396;28;20885;-57
2023/02/28 06:24:54;;;;;;;5.10;4.43;;;1.50;90.80;;;;;;5074753;28;20455;-57
2023/02/28 06:27:21;;;;;;;6.53;5.30;;;1.40;91.10;;;;;;5074129;28;20816;-57
2023/02/28 06:29:48;;;;;;;7.37;5.87;;;1.40;90.90;;;;;;5074288;28;20485;-57
2023/02/28 06:32:15;;;;;;;7.47;4.60;;;1.40;91.00;;;;;;5074362;28;20544;-57
2023/02/28 06:34:42;;;;;;;6.63;4.70;;;1.40;91.30;;;;;;5074341;28;20453;-57
2023/02/28 06:37:08;;;;;;;12.23;6.40;;;1.40;91.30;;;;;;5074416;28;20461;-57
2023/02/28 06:39:35;;;;;;;9.07;6.43;;;1.40;91.40;;;;;;5074224;28;20824;-57
2023/02/28 06:42:03;;;;;;;10.13;6.33;;;1.40;91.40;;;;;;5074126;28;20437;-57
2023/02/28 06:44:34;;;;;;;8.63;5.47;;;1.40;91.50;;;;;;5074186;28;20501;-57
2023/02/28 06:47:03;;;;;;;6.63;5.90;;;1.40;91.50;;;;;;5073892;28;20459;-57
2023/02/28 06:49:30;;;;;;;8.57;4.60;;;1.40;91.60;;;;;;5074116;28;20567;-57
2023/02/28 06:51:57;;;;;;;7.70;5.23;;;1.40;91.60;;;;;;5074853;28;20551;-57
2023/02/28 06:54:23;;;;;;;7.90;5.33;;;1.40;91.60;;;;;;5073972;28;20483;-57
2023/02/28 06:56:50;;;;;;;7.07;5.73;;;1.40;91.70;;;;;;5073633;28;20952;-57
2023/02/28 06:59:18;;;;;;;6.50;5.57;;;1.40;91.60;;;;;;5073844;28;20475;-57
2023/02/28 07:01:45;;;;;;;7.63;6.10;;;1.50;91.70;;;;;;5073862;28;20505;-57
2023/02/28 07:04:12;;;;;;;7.50;6.23;;;1.50;92.00;;;;;;5073456;28;20477;-57
2023/02/28 07:06:40;;;;;;;6.60;5.70;;;1.50;91.60;;;;;;5073704;28;20502;-57
2023/02/28 07:09:06;;;;;;;6.23;5.63;;;1.50;91.60;;;;;;5073539;28;20489;-57
2023/02/28 07:11:33;;;;;;;5.90;5.00;;;1.50;91.50;;;;;;5074259;28;20518;-57
2023/02/28 07:14:00;;;;;;;5.80;5.13;;;1.50;91.50;;;;;;5073633;28;20507;-57
2023/02/28 07:16:28;;;;;;;8.10;5.70;;;1.60;91.50;;;;;;5073562;28;20452;-57
2023/02/28 07:18:55;;;;;;;6.40;5.33;;;1.60;91.40;;;;;;5073684;28;20442;-57
2023/02/28 07:21:22;;;;;;;6.70;4.67;;;1.60;91.40;;;;;;5073357;28;20547;-57
2023/02/28 07:23:49;;;;;;;7.60;5.00;;;1.60;91.40;;;;;;5073583;28;20436;-57
2023/02/28 07:26:18;;;;;;;7.80;5.87;;;1.70;91.30;;;;;;5073330;28;20954;-57
2023/02/28 07:28:46;;;;;;;8.63;5.20;;;1.70;91.20;;;;;;5073294;28;20481;-57
2023/02/28 07:31:14;;;;;;;6.10;5.00;;;1.70;91.20;;;;;;5073471;28;20510;-57
2023/02/28 07:33:43;;;;;;;7.40;5.20;;;1.70;91.10;;;;;;5073384;28;20527;-57
2023/02/28 07:36:15;;;;;;;7.07;5.47;;;1.70;91.10;;;;;;5073038;28;20565;-57
2023/02/28 07:38:43;;;;;;;5.53;4.90;;;1.70;91.10;;;;;;5073295;28;20429;-57
2023/02/28 07:41:10;;;;;;;5.43;4.50;;;1.80;91.10;;;;;;5073096;28;20962;-57
2023/02/28 07:43:37;;;;;;;5.53;4.50;;;1.80;91.10;;;;;;5073224;28;20448;-57
2023/02/28 07:46:04;;;;;;;7.17;4.90;;;1.90;91.00;;;;;;5073210;28;20820;-57
2023/02/28 07:48:31;;;;;;;7.27;5.27;;;1.90;90.80;;;;;;5073149;28;20452;-57
2023/02/28 07:51:00;;;;;;;5.73;4.97;;;2.00;90.80;;;;;;5073158;28;20469;-57
2023/02/28 07:53:28;;;;;;;5.80;4.87;;;2.10;90.60;;;;;;5072890;28;20437;-57
2023/02/28 07:55:56;;;;;;;6.73;4.80;;;2.10;90.60;;;;;;5073128;28;20449;-57
2023/02/28 07:58:23;;;;;;;6.93;5.03;;;2.20;90.50;;;;;;5075135;28;20855;-57
2023/02/28 08:00:50;;;;;;;6.30;4.93;;;2.20;90.40;;;;;;5077182;28;20468;-57
2023/02/28 08:03:17;;;;;;;6.13;4.80;;;2.20;89.80;;;;;;5077197;28;20507;-57
2023/02/28 08:05:44;;;;;;;6.47;4.93;;;2.20;89.20;;;;;;5077158;28;20444;-57
2023/02/28 08:08:12;;;;;;;4.43;3.83;;;2.30;89.00;;;;;;5077136;28;20855;-57
2023/02/28 08:10:39;;;;;;;3.70;3.30;;;2.30;88.10;;;;;;5077436;28;20484;-57
2023/02/28 08:13:06;;;;;;;6.30;3.77;;;2.40;87.90;;;;;;5076980;28;20449;-57
2023/02/28 08:15:32;;;;;;;3.53;3.23;;;2.50;87.30;;;;;;5076893;28;20798;-57
2023/02/28 08:17:59;;;;;;;4.00;3.57;;;2.60;86.60;;;;;;5076841;28;20451;-57
2023/02/28 08:20:27;;;;;;;3.37;3.07;;;2.60;85.20;;;;;;5076753;28;20460;-57
2023/02/28 08:22:53;;;;;;;3.27;2.97;;;2.70;83.10;;;;;;5076447;28;20938;-57
2023/02/28 08:25:22;;;;;;;2.73;2.53;;;2.70;81.60;;;;;;5076486;28;20869;-58
2023/02/28 08:27:50;;;;;;;3.17;2.87;;;2.80;79.50;;;;;;5076661;28;20455;-57
2023/02/28 08:30:17;;;;;;;5.43;2.83;;;2.80;78.60;;;;;;5076552;28;20480;-57
2023/02/28 08:32:44;;;;;;;3.90;3.17;;;2.90;79.30;;;;;;5076277;28;20823;-57
2023/02/28 08:35:11;;;;;;;3.10;2.80;;;3.00;79.60;;;;;;5076665;28;20515;-57
2023/02/28 08:37:37;;;;;;;6.07;3.00;;;3.00;78.70;;;;;;5076564;28;20456;-57
2023/02/28 08:40:05;;;;;;;7.80;2.70;;;3.10;77.90;;;;;;5076131;28;21001;-57
2023/02/28 08:42:34;;;;;;;2.73;2.50;;;3.20;76.90;;;;;;5076390;28;20451;-57
2023/02/28 08:45:01;;;;;;;3.37;3.00;;;3.20;77.10;;;;;;5076318;28;20452;-57
2023/02/28 08:47:28;;;;;;;3.27;2.97;;;3.30;75.70;;;;;;5076354;28;20480;-57
2023/02/28 08:49:54;;;;;;;2.63;2.43;;;3.40;75.60;;;;;;5076201;28;20488;-57
2023/02/28 08:52:21;;;;;;;3.67;3.37;;;3.40;74.70;;;;;;5076344;28;20444;-57
2023/02/28 08:54:48;;;;;;;3.20;2.90;;;3.40;73.80;;;;;;5076310;28;20449;-57
2023/02/28 08:57:14;;;;;;;2.30;2.10;;;3.50;73.70;;;;;;5076506;28;20510;-58
2023/02/28 08:59:42;;;;;;;3.07;2.70;;;3.60;71.90;;;;;;5076307;28;20461;-57
2023/02/28 09:02:10;;;;;;;3.30;2.20;;;3.60;69.50;;;;;;5076260;28;20449;-57
2023/02/28 09:04:37;;;;;;;3.47;2.40;;;3.70;69.60;;;;;;5076039;28;20857;-57
2023/02/28 09:07:04;;;;;;;3.00;2.10;;;3.80;68.60;;;;;;5076050;28;20448;-58
2023/02/28 09:09:30;;;;;;;2.80;2.43;;;3.80;66.30;;;;;;5075397;28;21006;-57
2023/02/28 09:11:58;;;;;;;3.10;2.10;;;3.90;64.60;;;;;;5075974;28;20452;-57
2023/02/28 09:14:24;;;;;;;2.40;1.80;;;3.90;64.50;;;;;;5075889;28;20451;-57
2023/02/28 09:16:52;;;;;;;3.13;2.03;;;4.00;63.00;;;;;;5075566;28;20453;-57
2023/02/28 09:19:19;;;;;;;2.43;1.90;;;4.00;62.90;;;;;;5075746;28;20510;-57
2023/02/28 09:21:46;;;;;;;1.50;1.40;;;4.10;61.60;;;;;;5075475;28;20465;-57
2023/02/28 09:24:14;;;;;;;1.97;1.87;;;4.10;60.20;;;;;;5075821;28;20452;-57
2023/02/28 09:26:41;;;;;;;6.40;2.00;;;4.20;59.70;;;;;;5075243;28;20836;-57
2023/02/28 09:29:08;;;;;;;1.70;1.60;;;4.30;59.50;;;;;;5075164;28;21004;-57
2023/02/28 09:31:35;;;;;;;2.47;2.27;;;4.40;60.20;;;;;;5075677;28;20451;-57
2023/02/28 09:34:04;;;;;;;1.70;1.60;;;4.40;59.40;;;;;;5075546;28;20448;-57
2023/02/28 09:36:33;;;;;;;2.80;2.17;;;4.40;58.90;;;;;;5075369;28;20978;-57
2023/02/28 09:38:59;;;;;;;2.10;2.00;;;4.60;58.50;;;;;;5075401;28;21060;-57
2023/02/28 09:41:30;;;;;;;2.03;1.93;;;4.70;57.70;;;;;;5075480;28;20445;-57
2023/02/28 09:44:00;;;;;;;2.40;1.63;;;4.70;57.10;;;;;;5075361;28;20436;-57
2023/02/28 09:46:32;;;;;;;3.10;1.73;;;4.80;56.50;;;;;;5075339;28;20436;-57
2023/02/28 09:49:00;;;;;;;3.00;2.50;;;4.90;56.50;;;;;;5075219;28;20441;-58
2023/02/28 09:51:40;;;;;;;2.23;1.50;;;5.00;55.50;;;;;;5075084;28;20485;-58
2023/02/28 09:54:12;;;;;;;2.27;2.00;;;5.00;54.30;;;;;;5075196;28;20778;-58
2023/02/28 09:56:42;;;;;;;3.30;1.80;;;5.20;54.60;;;;;;5075111;28;20437;-58
2023/02/28 09:59:17;;;;;;;2.20;2.00;;;5.40;53.80;;;;;;5075131;28;20841;-58
2023/02/28 10:01:51;;;;;;;2.30;2.10;;;5.50;54.00;;;;;;5075046;28;20840;-58
2023/02/28 10:04:35;;;;;;;3.13;1.70;;;5.60;53.00;;;;;;5074945;28;20424;-58
2023/02/28 10:07:17;;;;;;;4.20;2.00;;;5.80;52.30;;;;;;5074934;28;20429;-58
2023/02/28 10:09:46;;;;;;;1.87;1.70;;;6.10;52.20;;;;;;5075267;28;20549;-58
2023/02/28 10:12:15;;;;;;;1.80;1.70;;;6.30;50.50;;;;;;5074876;28;20449;-58
2023/02/28 10:14:48;;;;;;;2.27;2.07;;;6.50;50.10;;;;;;5074687;28;20456;-58
2023/02/28 10:17:19;;;;;;;1.67;1.57;;;6.60;49.70;;;;;;5074812;28;20468;-58
2023/02/28 10:19:57;;;;;;;1.93;1.80;;;6.70;50.20;;;;;;5074522;28;20519;-58
2023/02/28 10:22:29;;;;;;;2.40;2.20;;;6.90;49.40;;;;;;5074158;28;20479;-58
2023/02/28 10:24:59;;;;;;;1.80;1.70;;;7.10;48.80;;;;;;5074668;28;20441;-58
2023/02/28 10:27:30;;;;;;;1.67;1.57;;;7.40;48.90;;;;;;5074489;28;20434;-58
2023/02/28 10:30:00;;;;;;;2.07;1.60;;;7.70;48.10;;;;;;5074338;28;20517;-58
2023/02/28 10:32:29;;;;;;;2.40;2.20;;;8.10;47.40;;;;;;5074377;28;20503;-58
2023/02/28 10:35:00;;;;;;;2.10;1.40;;;8.60;46.30;;;;;;5073984;28;20452;-58
2023/02/28 10:37:29;;;;;;;1.97;1.83;;;9.10;44.80;;;;;;5074004;28;20933;-58
2023/02/28 10:39:56;;;;;;;2.97;1.73;;;9.70;43.60;;;;;;5074169;28;20850;-58
2023/02/28 10:42:26;;;;;;;2.73;2.30;;;10.20;41.20;;;;;;5074273;28;20869;-58
2023/02/28 10:45:08;;;;;;;2.70;2.27;;;10.70;39.50;;;;;;5074225;28;20429;-58
2023/02/28 10:47:36;;;;;;;1.80;1.60;;;11.20;38.30;;;;;;5073796;28;20433;-58
2023/02/28 10:50:03;;;;;;;1.63;1.53;;;11.60;37.00;;;;;;5073889;28;20588;-58
2023/02/28 10:52:40;;;;;;;2.23;1.60;;;12.00;35.70;;;;;;5073948;28;20448;-59
2023/02/28 10:55:24;;;;;;;2.20;1.93;;;12.40;34.50;;;;;;5074884;28;20535;-59
2023/02/28 10:57:52;;;;;;;1.93;1.70;;;12.80;33.90;;;;;;5073996;28;20440;-58
2023/02/28 11:00:21;;;;;;;2.13;1.93;;;13.20;33.00;;;;;;5073774;28;20460;-58
2023/02/28 11:02:49;;;;;;;1.77;1.67;;;13.60;32.50;;;;;;5073826;28;20462;-58
2023/02/28 11:05:27;;;;;;;1.80;1.70;;;13.90;31.40;;;;;;5073818;28;20471;-58
2023/02/28 11:07:56;;;;;;;2.30;2.10;;;14.30;30.30;;;;;;5073436;28;20957;-58
2023/02/28 11:10:26;;;;;;;1.53;1.43;;;14.70;29.70;;;;;;5073622;28;20488;-58
2023/02/28 11:12:57;;;;;;;1.80;1.70;;;15.00;29.10;;;;;;5073745;28;20429;-58
2023/02/28 11:15:26;;;;;;;1.40;1.30;;;15.30;28.70;;;;;;5073655;28;20440;-58
2023/02/28 11:17:56;;;;;;;1.50;1.40;;;15.50;28.00;;;;;;5073543;28;20445;-58
2023/02/28 11:20:26;;;;;;;2.40;1.70;;;15.80;28.10;;;;;;5073533;28;20488;-58
2023/02/28 11:22:54;;;;;;;1.53;1.43;;;16.10;27.80;;;;;;5073369;28;20471;-59
2023/02/28 11:25:25;;;;;;;1.77;1.67;;;16.30;27.00;;;;;;5073483;28;20480;-58
2023/02/28 11:27:54;;;;;;;2.10;2.00;;;16.50;27.00;;;;;;5073458;28;20433;-58
2023/02/28 11:30:33;;;;;;;1.57;1.47;;;16.60;26.60;;;;;;5073086;28;21016;-58
2023/02/28 11:33:01;;;;;;;2.90;1.83;;;16.80;26.70;;;;;;5072375;28;20910;-59
2023/02/28 11:35:31;;;;;;;2.80;1.77;;;17.00;26.10;;;;;;5073165;28;20822;-59
2023/02/28 11:37:59;;;;;;;2.40;1.77;;;17.30;26.40;;;;;;5073534;28;20444;-59
2023/02/28 11:40:32;;;;;;;1.40;1.30;;;17.50;25.90;;;;;;5073349;28;20503;-58
2023/02/28 11:43:07;;;;;;;1.70;1.30;;;17.90;26.10;;;;;;5073309;28;20437;-58
2023/02/28 11:45:52;;;;;;;1.77;1.67;;;18.20;25.30;;;;;;5073372;28;20428;-59
2023/02/28 11:48:23;;;;;;;1.83;1.70;;;18.60;25.10;;;;;;5073313;28;20429;-58
2023/02/28 11:51:01;;;;;;;2.27;1.70;;;18.70;24.90;;;;;;5073129;28;20492;-59
2023/02/28 11:53:44;;;;;;;1.87;1.67;;;19.10;24.50;;;;;;5073294;28;20448;-58
2023/02/28 11:56:19;;;;;;;2.00;1.90;;;19.50;23.70;;;;;;5073434;28;20440;-58
2023/02/28 11:58:53;;;;;;;2.30;1.90;;;19.60;23.30;;;;;;5073219;28;20437;-59
2023/02/28 12:01:32;;;;;;;9.67;1.97;;;19.70;23.20;;;;;;5073454;28;20902;-59
2023/02/28 12:04:09;;;;;;;1.80;1.70;;;19.30;23.40;;;;;;5073162;28;20478;-59
2023/02/28 12:06:44;;;;;;;2.27;1.90;;;19.20;23.90;;;;;;5072582;28;20937;-58
2023/02/28 12:09:25;;;;;;;2.00;1.70;;;19.30;23.50;;;;;;5073112;28;20472;-59
2023/02/28 12:11:57;;;;;;;3.23;1.90;;;19.60;23.50;;;;;;5072979;28;20468;-59
2023/02/28 12:14:54;;;;;;;2.90;1.97;;;19.90;23.10;;;;;;5072996;28;20433;-59
2023/02/28 12:17:35;;;;;;;3.60;2.07;;;19.90;22.90;;;;;;5016129;28;20451;-59
2023/02/28 12:20:13;;;;;;;2.03;1.83;;;20.10;22.00;;;;;;5072497;28;20985;-59
2023/02/28 12:22:48;;;;;;;1.80;1.70;;;20.30;22.30;;;;;;5073389;28;20820;-59
2023/02/28 12:25:40;;;;;;;1.70;1.60;;;20.70;22.00;;;;;;5072872;28;20420;-59
2023/02/28 12:28:10;;;;;;;2.60;2.27;;;21.00;22.30;;;;;;5072895;28;20433;-59
2023/02/28 12:30:39;;;;;;;2.17;1.90;;;21.40;22.50;;;;;;5072681;28;20537;-59
2023/02/28 12:33:09;;;;;;;1.50;1.40;;;21.70;21.40;;;;;;5072828;28;20455;-59
2023/02/28 12:35:39;;;;;;;2.97;2.03;;;21.90;21.30;;;;;;5072433;28;20444;-59
2023/02/28 12:38:12;;;;;;;1.80;1.70;;;22.20;21.30;;;;;;5072962;28;20432;-59
2023/02/28 12:40:47;;;;;;;2.47;2.00;;;22.50;21.40;;;;;;5072438;28;20815;-59
2023/02/28 12:43:17;;;;;;;2.00;1.90;;;22.80;20.90;;;;;;5072536;28;20955;-59
2023/02/28 12:45:48;;;;;;;2.10;1.90;;;23.10;20.50;;;;;;5076428;28;20444;-59
2023/02/28 12:48:20;;;;;;;2.57;2.37;;;23.20;20.20;;;;;;5076144;28;20964;-59
2023/02/28 12:50:48;;;;;;;1.83;1.67;;;23.50;20.40;;;;;;5076172;28;20515;-59
2023/02/28 12:53:22;;;;;;;3.97;2.00;;;23.90;20.40;;;;;;5076294;28;20444;-57
2023/02/28 12:55:55;;;;;;;2.10;1.87;;;24.30;19.90;;;;;;5076347;28;20425;-57
2023/02/28 12:58:29;;;;;;;1.83;1.70;;;24.50;19.80;;;;;;5076270;28;20440;-57
2023/02/28 13:01:35;;;;;;;1.60;1.40;;;24.70;19.20;;;;;;5076123;28;20479;-57
2023/02/28 13:04:35;;;;;;;2.30;2.10;;;24.80;18.90;;;;;;5075849;28;20906;-57
2023/02/28 13:07:15;;;;;;;1.80;1.70;;;25.00;19.10;;;;;;5072003;28;20464;-56
2023/02/28 13:09:52;;;;;;;1.93;1.80;;;25.10;19.20;;;;;;5076001;28;20513;-57